createdAt,value
2017-12-20T00:00:05.450Z,1021.16
2017-12-20T00:01:05.453Z,1021.13
2017-12-20T00:02:05.437Z,1021.10
2017-12-20T00:03:05.432Z,1021.11
2017-12-20T00:04:05.426Z,1021.13
2017-12-20T00:05:05.421Z,1021.14
2017-12-20T00:06:05.414Z,1021.15
2017-12-20T00:07:05.407Z,1021.12
2017-12-20T00:08:05.402Z,1021.10
2017-12-20T00:09:05.397Z,1021.14
2017-12-20T00:10:05.391Z,1021.12
2017-12-20T00:11:05.385Z,1021.16
2017-12-20T00:12:05.379Z,1021.09
2017-12-20T00:13:05.373Z,1021.13
2017-12-20T00:14:05.368Z,1021.14
2017-12-20T00:15:05.360Z,1021.12
2017-12-20T00:16:05.355Z,1021.11
2017-12-20T00:17:05.350Z,1021.11
2017-12-20T00:18:05.343Z,1021.15
2017-12-20T00:19:05.336Z,1021.13
2017-12-20T00:20:05.333Z,1021.13
2017-12-20T00:21:05.325Z,1021.11
2017-12-20T00:22:05.319Z,1021.12
2017-12-20T00:23:05.313Z,1021.12
2017-12-20T00:24:05.309Z,1021.07
2017-12-20T00:25:05.303Z,1021.09
2017-12-20T00:26:05.298Z,1021.09
2017-12-20T00:27:05.291Z,1021.08
2017-12-20T00:28:05.285Z,1021.11
2017-12-20T00:29:05.278Z,1021.11
2017-12-20T00:30:05.272Z,1021.12
2017-12-20T00:31:05.267Z,1021.13
2017-12-20T00:32:05.261Z,1021.11
2017-12-20T00:33:05.256Z,1021.14
2017-12-20T00:34:05.250Z,1021.09
2017-12-20T00:35:05.253Z,1021.09
2017-12-20T00:36:05.238Z,1021.16
2017-12-20T00:37:05.232Z,1021.13
2017-12-20T00:38:05.226Z,1021.12
2017-12-20T00:39:05.221Z,1021.12
2017-12-20T00:40:05.217Z,1021.14
2017-12-20T00:41:05.212Z,1021.13
2017-12-20T00:42:05.210Z,1021.13
2017-12-20T00:43:05.198Z,1021.18
2017-12-20T00:44:05.192Z,1021.17
2017-12-20T00:45:05.188Z,1021.15
2017-12-20T00:46:05.180Z,1021.17
2017-12-20T00:47:05.175Z,1021.13
2017-12-20T00:48:05.169Z,1021.12
2017-12-20T00:49:05.164Z,1021.13
2017-12-20T00:50:05.156Z,1021.10
2017-12-20T00:51:05.152Z,1021.12
2017-12-20T00:52:05.146Z,1021.08
2017-12-20T00:53:05.139Z,1021.09
2017-12-20T00:54:05.133Z,1021.05
2017-12-20T00:55:05.129Z,1021.04
2017-12-20T00:56:05.123Z,1021.02
2017-12-20T00:57:05.118Z,1021.01
2017-12-20T00:58:05.112Z,1021.04
2017-12-20T00:59:05.105Z,1021.03
2017-12-20T01:00:05.100Z,1021.04
2017-12-20T01:01:05.095Z,1021.06
2017-12-20T01:02:05.087Z,1021.09
2017-12-20T01:03:05.083Z,1021.08
2017-12-20T01:04:05.078Z,1021.08
2017-12-20T01:05:05.070Z,1021.11
2017-12-20T01:06:05.066Z,1021.08
2017-12-20T01:07:05.058Z,1021.09
2017-12-20T01:08:05.054Z,1021.08
2017-12-20T01:09:05.050Z,1021.06
2017-12-20T01:10:05.042Z,1021.06
2017-12-20T01:11:05.036Z,1021.09
2017-12-20T01:12:05.030Z,1021.07
2017-12-20T01:13:05.026Z,1021.07
2017-12-20T01:14:05.019Z,1021.06
2017-12-20T01:15:05.013Z,1021.09
2017-12-20T01:16:05.009Z,1021.15
2017-12-20T01:17:05.002Z,1021.16
2017-12-20T01:18:04.996Z,1021.18
2017-12-20T01:19:04.991Z,1021.16
2017-12-20T01:20:04.985Z,1021.18
2017-12-20T01:21:04.980Z,1021.17
2017-12-20T01:22:04.976Z,1021.13
2017-12-20T01:23:04.967Z,1021.08
2017-12-20T01:24:04.961Z,1021.12
2017-12-20T01:25:04.956Z,1021.13
2017-12-20T01:26:04.948Z,1021.12
2017-12-20T01:27:04.943Z,1021.15
2017-12-20T01:28:04.937Z,1021.11
2017-12-20T01:29:04.932Z,1021.13
2017-12-20T01:30:04.928Z,1021.19
2017-12-20T01:31:04.919Z,1021.14
2017-12-20T01:32:04.915Z,1021.14
2017-12-20T01:33:04.909Z,1021.13
2017-12-20T01:34:04.902Z,1021.17
2017-12-20T01:35:04.897Z,1021.18
2017-12-20T01:36:04.892Z,1021.17
2017-12-20T01:37:04.893Z,1021.18
2017-12-20T01:38:04.880Z,1021.20
2017-12-20T01:39:04.873Z,1021.16
2017-12-20T01:40:04.869Z,1021.19
2017-12-20T01:41:04.863Z,1021.11
2017-12-20T01:42:04.856Z,1021.10
2017-12-20T01:43:04.850Z,1021.12
2017-12-20T01:44:04.845Z,1021.12
2017-12-20T01:45:04.839Z,1021.12
2017-12-20T01:46:04.832Z,1021.10
2017-12-20T01:47:04.826Z,1021.12
2017-12-20T01:48:04.822Z,1021.13
2017-12-20T01:49:04.814Z,1021.19
2017-12-20T01:50:04.808Z,1021.18
2017-12-20T01:51:04.803Z,1021.13
2017-12-20T01:52:04.796Z,1021.17
2017-12-20T01:53:04.792Z,1021.12
2017-12-20T01:54:04.785Z,1021.11
2017-12-20T01:55:04.780Z,1021.11
2017-12-20T01:56:04.773Z,1021.08
2017-12-20T01:57:04.767Z,1021.02
2017-12-20T01:58:04.762Z,1020.94
2017-12-20T01:59:04.756Z,1020.93
2017-12-20T02:00:04.750Z,1020.95
2017-12-20T02:01:04.744Z,1020.95
2017-12-20T02:02:04.739Z,1020.96
2017-12-20T02:03:04.733Z,1020.97
2017-12-20T02:04:04.727Z,1021.00
2017-12-20T02:05:04.722Z,1021.00
2017-12-20T02:06:04.713Z,1021.02
2017-12-20T02:07:04.709Z,1021.04
2017-12-20T02:08:04.711Z,1021.03
2017-12-20T02:09:04.697Z,1021.02
2017-12-20T02:10:04.690Z,1020.94
2017-12-20T02:11:04.686Z,1020.97
2017-12-20T02:12:04.683Z,1020.94
2017-12-20T02:13:04.675Z,1020.97
2017-12-20T02:14:04.667Z,1020.95
2017-12-20T02:15:04.663Z,1020.92
2017-12-20T02:16:04.657Z,1020.92
2017-12-20T02:17:04.652Z,1020.93
2017-12-20T02:18:04.646Z,1020.92
2017-12-20T02:19:04.639Z,1020.92
2017-12-20T02:20:04.634Z,1020.92
2017-12-20T02:21:04.629Z,1020.96
2017-12-20T02:22:04.622Z,1021.00
2017-12-20T02:23:04.617Z,1021.03
2017-12-20T02:24:04.611Z,1021.06
2017-12-20T02:25:04.605Z,1021.07
2017-12-20T02:26:04.600Z,1021.07
2017-12-20T02:27:04.594Z,1021.11
2017-12-20T02:28:04.587Z,1021.12
2017-12-20T02:29:04.582Z,1021.12
2017-12-20T02:30:04.574Z,1021.12
2017-12-20T02:31:04.571Z,1021.14
2017-12-20T02:32:04.566Z,1021.21
2017-12-20T02:33:04.568Z,1021.10
2017-12-20T02:34:04.553Z,1021.19
2017-12-20T02:35:04.552Z,1021.16
2017-12-20T02:36:04.544Z,1021.13
2017-12-20T02:37:04.537Z,1021.12
2017-12-20T02:38:04.530Z,1021.17
2017-12-20T02:39:04.527Z,1021.14
2017-12-20T02:40:04.519Z,1021.09
2017-12-20T02:41:04.513Z,1021.08
2017-12-20T02:42:04.505Z,1021.07
2017-12-20T02:43:04.502Z,1021.10
2017-12-20T02:44:04.496Z,1021.10
2017-12-20T02:45:04.490Z,1021.13
2017-12-20T02:46:04.485Z,1021.08
2017-12-20T02:47:04.480Z,1021.10
2017-12-20T02:48:04.474Z,1021.06
2017-12-20T02:49:04.468Z,1021.06
2017-12-20T02:50:04.462Z,1021.05
2017-12-20T02:51:04.457Z,1021.02
2017-12-20T02:52:04.451Z,1021.04
2017-12-20T02:53:04.445Z,1021.02
2017-12-20T02:54:04.439Z,1021.02
2017-12-20T02:55:04.433Z,1020.99
2017-12-20T02:56:04.428Z,1021.00
2017-12-20T02:57:04.427Z,1020.99
2017-12-20T02:58:04.416Z,1020.97
2017-12-20T02:59:04.411Z,1020.96
2017-12-20T03:00:04.404Z,1020.93
2017-12-20T03:01:04.400Z,1020.95
2017-12-20T03:02:04.394Z,1020.93
2017-12-20T03:03:04.389Z,1020.94
2017-12-20T03:04:04.383Z,1020.96
2017-12-20T03:05:04.379Z,1020.94
2017-12-20T03:06:04.372Z,1020.93
2017-12-20T03:07:04.366Z,1020.93
2017-12-20T03:08:04.361Z,1020.92
2017-12-20T03:09:04.356Z,1020.95
2017-12-20T03:10:04.350Z,1020.97
2017-12-20T03:11:04.344Z,1020.92
2017-12-20T03:12:04.339Z,1020.98
2017-12-20T03:13:04.335Z,1021.00
2017-12-20T03:14:04.327Z,1021.01
2017-12-20T03:15:04.321Z,1021.02
2017-12-20T03:16:04.317Z,1021.03
2017-12-20T03:17:04.312Z,1021.02
2017-12-20T03:18:04.305Z,1020.99
2017-12-20T03:19:04.300Z,1020.94
2017-12-20T03:20:04.295Z,1021.01
2017-12-20T03:21:04.289Z,1020.99
2017-12-20T03:22:04.288Z,1021.02
2017-12-20T03:23:04.278Z,1021.00
2017-12-20T03:24:04.274Z,1020.95
2017-12-20T03:25:04.269Z,1020.96
2017-12-20T03:26:04.263Z,1020.90
2017-12-20T03:27:04.258Z,1020.86
2017-12-20T03:28:04.251Z,1020.81
2017-12-20T03:29:04.247Z,1020.77
2017-12-20T03:30:04.243Z,1020.80
2017-12-20T03:31:04.236Z,1020.79
2017-12-20T03:32:04.231Z,1020.78
2017-12-20T03:33:04.226Z,1020.77
2017-12-20T03:34:04.220Z,1020.80
2017-12-20T03:35:04.215Z,1020.84
2017-12-20T03:36:04.208Z,1020.82
2017-12-20T03:37:04.203Z,1020.82
2017-12-20T03:38:04.197Z,1020.82
2017-12-20T03:39:04.190Z,1020.81
2017-12-20T03:40:04.186Z,1020.81
2017-12-20T03:41:04.183Z,1020.78
2017-12-20T03:42:04.176Z,1020.76
2017-12-20T03:43:04.170Z,1020.80
2017-12-20T03:44:04.167Z,1020.80
2017-12-20T03:45:04.160Z,1020.80
2017-12-20T03:46:04.154Z,1020.76
2017-12-20T03:47:04.149Z,1020.77
2017-12-20T03:48:04.143Z,1020.76
2017-12-20T03:49:04.137Z,1020.73
2017-12-20T03:50:04.132Z,1020.79
2017-12-20T03:51:04.126Z,1020.77
2017-12-20T03:52:04.122Z,1020.82
2017-12-20T03:53:04.117Z,1020.78
2017-12-20T03:54:04.112Z,1020.79
2017-12-20T03:55:04.103Z,1020.81
2017-12-20T03:56:04.101Z,1020.83
2017-12-20T03:57:04.094Z,1020.85
2017-12-20T03:58:04.089Z,1020.83
2017-12-20T03:59:04.083Z,1020.85
2017-12-20T04:00:04.082Z,1020.84
2017-12-20T04:01:04.073Z,1020.90
2017-12-20T04:02:04.068Z,1020.91
2017-12-20T04:03:04.062Z,1020.95
2017-12-20T04:04:04.056Z,1021.00
2017-12-20T04:05:04.051Z,1020.96
2017-12-20T04:06:04.045Z,1020.98
2017-12-20T04:07:04.040Z,1021.02
2017-12-20T04:08:04.035Z,1020.99
2017-12-20T04:09:04.030Z,1020.99
2017-12-20T04:10:04.024Z,1021.04
2017-12-20T04:11:04.018Z,1021.01
2017-12-20T04:12:04.013Z,1021.02
2017-12-20T04:13:04.009Z,1021.06
2017-12-20T04:14:04.002Z,1021.07
2017-12-20T04:15:03.996Z,1021.07
2017-12-20T04:16:03.992Z,1021.09
2017-12-20T04:17:03.985Z,1021.07
2017-12-20T04:18:03.979Z,1021.08
2017-12-20T04:19:03.975Z,1021.05
2017-12-20T04:20:03.972Z,1021.08
2017-12-20T04:21:03.965Z,1021.09
2017-12-20T04:22:03.959Z,1021.05
2017-12-20T04:23:03.954Z,1021.04
2017-12-20T04:24:03.949Z,1021.07
2017-12-20T04:25:03.944Z,1021.06
2017-12-20T04:26:03.937Z,1021.08
2017-12-20T04:27:03.932Z,1021.10
2017-12-20T04:28:03.926Z,1021.07
2017-12-20T04:29:03.923Z,1021.06
2017-12-20T04:30:03.915Z,1021.07
2017-12-20T04:31:03.911Z,1021.01
2017-12-20T04:32:03.905Z,1021.04
2017-12-20T04:33:03.902Z,1021.05
2017-12-20T04:34:03.896Z,1021.06
2017-12-20T04:35:03.891Z,1021.11
2017-12-20T04:36:03.885Z,1021.04
2017-12-20T04:37:03.880Z,1021.10
2017-12-20T04:38:03.875Z,1021.10
2017-12-20T04:39:03.869Z,1021.09
2017-12-20T04:40:03.865Z,1021.14
2017-12-20T04:41:03.858Z,1021.08
2017-12-20T04:42:03.853Z,1021.07
2017-12-20T04:43:03.852Z,1021.08
2017-12-20T04:44:03.845Z,1021.13
2017-12-20T04:45:03.838Z,1021.17
2017-12-20T04:46:03.832Z,1021.21
2017-12-20T04:47:03.827Z,1021.22
2017-12-20T04:48:03.822Z,1021.17
2017-12-20T04:49:03.818Z,1021.19
2017-12-20T04:50:03.811Z,1021.21
2017-12-20T04:51:03.807Z,1021.21
2017-12-20T04:52:03.803Z,1021.27
2017-12-20T04:53:03.795Z,1021.20
2017-12-20T04:54:03.790Z,1021.22
2017-12-20T04:55:03.785Z,1021.27
2017-12-20T04:56:03.781Z,1021.22
2017-12-20T04:57:03.782Z,1021.18
2017-12-20T04:58:03.769Z,1021.19
2017-12-20T04:59:03.765Z,1021.16
2017-12-20T05:00:03.760Z,1021.15
2017-12-20T05:01:03.754Z,1021.14
2017-12-20T05:02:03.748Z,1021.16
2017-12-20T05:03:03.743Z,1021.12
2017-12-20T05:04:03.739Z,1021.06
2017-12-20T05:05:03.734Z,1021.10
2017-12-20T05:06:03.728Z,1021.07
2017-12-20T05:07:03.724Z,1021.14
2017-12-20T05:08:03.718Z,1021.12
2017-12-20T05:09:03.716Z,1021.12
2017-12-20T05:10:03.711Z,1021.12
2017-12-20T05:11:03.703Z,1021.12
2017-12-20T05:12:03.697Z,1021.10
2017-12-20T05:13:03.692Z,1021.10
2017-12-20T05:14:03.686Z,1021.16
2017-12-20T05:15:03.680Z,1021.12
2017-12-20T05:16:03.680Z,1021.11
2017-12-20T05:17:03.671Z,1021.12
2017-12-20T05:18:03.665Z,1021.14
2017-12-20T05:19:03.661Z,1021.17
2017-12-20T05:20:03.655Z,1021.15
2017-12-20T05:21:03.651Z,1021.19
2017-12-20T05:22:03.646Z,1021.17
2017-12-20T05:23:03.639Z,1021.22
2017-12-20T05:24:03.638Z,1021.22
2017-12-20T05:25:03.629Z,1021.26
2017-12-20T05:26:03.623Z,1021.23
2017-12-20T05:27:03.617Z,1021.21
2017-12-20T05:28:03.613Z,1021.18
2017-12-20T05:29:03.607Z,1021.18
2017-12-20T05:30:03.605Z,1021.15
2017-12-20T05:31:03.597Z,1021.16
2017-12-20T05:32:03.592Z,1021.13
2017-12-20T05:33:03.589Z,1021.13
2017-12-20T05:34:03.590Z,1021.16
2017-12-20T05:35:03.576Z,1021.19
2017-12-20T05:36:03.572Z,1021.21
2017-12-20T05:37:03.565Z,1021.20
2017-12-20T05:38:03.560Z,1021.20
2017-12-20T05:39:03.554Z,1021.26
2017-12-20T05:40:03.551Z,1021.25
2017-12-20T05:41:03.546Z,1021.24
2017-12-20T05:42:03.540Z,1021.22
2017-12-20T05:43:03.535Z,1021.20
2017-12-20T05:44:03.530Z,1021.24
2017-12-20T05:45:03.526Z,1021.21
2017-12-20T05:46:03.521Z,1021.16
2017-12-20T05:47:03.514Z,1021.18
2017-12-20T05:48:03.509Z,1021.13
2017-12-20T05:49:03.507Z,1021.14
2017-12-20T05:50:03.498Z,1021.11
2017-12-20T05:51:03.493Z,1021.12
2017-12-20T05:52:03.488Z,1021.09
2017-12-20T05:53:03.483Z,1021.08
2017-12-20T05:54:03.479Z,1021.09
2017-12-20T05:55:03.472Z,1021.09
2017-12-20T05:56:03.469Z,1021.14
2017-12-20T05:57:03.462Z,1021.13
2017-12-20T05:58:03.456Z,1021.19
2017-12-20T05:59:03.451Z,1021.19
2017-12-20T06:00:03.446Z,1021.13
2017-12-20T06:01:03.441Z,1021.14
2017-12-20T06:02:03.435Z,1021.17
2017-12-20T06:03:03.430Z,1021.16
2017-12-20T06:04:03.426Z,1021.16
2017-12-20T06:05:03.420Z,1021.14
2017-12-20T06:06:03.415Z,1021.17
2017-12-20T06:07:03.410Z,1021.12
2017-12-20T06:08:03.406Z,1021.13
2017-12-20T06:09:03.399Z,1021.15
2017-12-20T06:10:03.394Z,1021.12
2017-12-20T06:11:03.389Z,1021.11
2017-12-20T06:12:03.383Z,1021.09
2017-12-20T06:13:03.379Z,1021.08
2017-12-20T06:14:03.373Z,1021.10
2017-12-20T06:15:03.370Z,1021.04
2017-12-20T06:16:03.363Z,1021.09
2017-12-20T06:17:03.358Z,1021.06
2017-12-20T06:18:03.375Z,1021.11
2017-12-20T06:19:03.347Z,1021.10
2017-12-20T06:20:03.342Z,1021.11
2017-12-20T06:21:03.341Z,1021.09
2017-12-20T06:22:03.331Z,1021.13
2017-12-20T06:23:03.326Z,1021.16
2017-12-20T06:24:03.324Z,1021.12
2017-12-20T06:25:03.316Z,1021.13
2017-12-20T06:26:03.311Z,1021.11
2017-12-20T06:27:03.305Z,1021.16
2017-12-20T06:28:03.301Z,1021.13
2017-12-20T06:29:03.295Z,1021.13
2017-12-20T06:30:03.338Z,1021.16
2017-12-20T06:31:03.284Z,1021.18
2017-12-20T06:32:03.279Z,1021.15
2017-12-20T06:33:03.274Z,1021.16
2017-12-20T06:34:03.268Z,1021.19
2017-12-20T06:35:03.262Z,1021.17
2017-12-20T06:36:03.257Z,1021.16
2017-12-20T06:37:03.252Z,1021.14
2017-12-20T06:38:03.247Z,1021.13
2017-12-20T06:39:03.241Z,1021.15
2017-12-20T06:40:03.236Z,1021.15
2017-12-20T06:41:03.231Z,1021.17
2017-12-20T06:42:03.225Z,1021.16
2017-12-20T06:43:03.219Z,1021.20
2017-12-20T06:44:03.215Z,1021.21
2017-12-20T06:45:03.210Z,1021.19
2017-12-20T06:46:03.203Z,1021.25
2017-12-20T06:47:03.199Z,1021.21
2017-12-20T06:48:03.192Z,1021.24
2017-12-20T06:49:03.188Z,1021.27
2017-12-20T06:50:03.181Z,1021.28
2017-12-20T06:51:03.176Z,1021.31
2017-12-20T06:52:03.171Z,1021.31
2017-12-20T06:53:03.166Z,1021.30
2017-12-20T06:54:03.161Z,1021.27
2017-12-20T06:55:03.157Z,1021.26
2017-12-20T06:56:03.149Z,1021.30
2017-12-20T06:57:03.144Z,1021.26
2017-12-20T06:58:03.137Z,1021.23
2017-12-20T06:59:03.133Z,1021.22
2017-12-20T07:00:03.131Z,1021.23
2017-12-20T07:01:03.122Z,1021.22
2017-12-20T07:02:03.118Z,1021.22
2017-12-20T07:03:03.112Z,1021.21
2017-12-20T07:04:03.109Z,1021.19
2017-12-20T07:05:03.104Z,1021.24
2017-12-20T07:06:03.095Z,1021.24
2017-12-20T07:07:03.091Z,1021.21
2017-12-20T07:08:03.086Z,1021.23
2017-12-20T07:09:03.081Z,1021.28
2017-12-20T07:10:03.075Z,1021.29
2017-12-20T07:11:03.069Z,1021.29
2017-12-20T07:12:03.064Z,1021.34
2017-12-20T07:13:03.060Z,1021.39
2017-12-20T07:14:03.053Z,1021.43
2017-12-20T07:15:03.052Z,1021.42
2017-12-20T07:16:03.043Z,1021.44
2017-12-20T07:17:03.038Z,1021.48
2017-12-20T07:18:03.033Z,1021.50
2017-12-20T07:19:03.027Z,1021.44
2017-12-20T07:20:03.021Z,1021.50
2017-12-20T07:21:03.016Z,1021.48
2017-12-20T07:22:03.010Z,1021.49
2017-12-20T07:23:03.008Z,1021.50
2017-12-20T07:24:02.999Z,1021.49
2017-12-20T07:25:02.994Z,1021.51
2017-12-20T07:26:02.988Z,1021.49
2017-12-20T07:27:02.981Z,1021.50
2017-12-20T07:28:02.978Z,1021.50
2017-12-20T07:29:02.972Z,1021.49
2017-12-20T07:30:02.967Z,1021.52
2017-12-20T07:31:02.962Z,1021.50
2017-12-20T07:32:02.956Z,1021.48
2017-12-20T07:33:02.951Z,1021.52
2017-12-20T07:34:02.944Z,1021.53
2017-12-20T07:35:02.939Z,1021.56
2017-12-20T07:36:02.934Z,1021.51
2017-12-20T07:37:02.928Z,1021.52
2017-12-20T07:38:02.921Z,1021.50
2017-12-20T07:39:02.920Z,1021.46
2017-12-20T07:40:02.912Z,1021.46
2017-12-20T07:41:02.906Z,1021.46
2017-12-20T07:42:02.900Z,1021.45
2017-12-20T07:43:02.895Z,1021.47
2017-12-20T07:44:02.890Z,1021.48
2017-12-20T07:45:02.884Z,1021.48
2017-12-20T07:46:02.879Z,1021.53
2017-12-20T07:47:02.874Z,1021.51
2017-12-20T07:48:02.868Z,1021.57
2017-12-20T07:49:02.864Z,1021.57
2017-12-20T07:50:02.857Z,1021.54
2017-12-20T07:51:02.850Z,1021.56
2017-12-20T07:52:02.846Z,1021.62
2017-12-20T07:53:02.848Z,1021.67
2017-12-20T07:54:02.835Z,1021.66
2017-12-20T07:55:02.829Z,1021.67
2017-12-20T07:56:02.824Z,1021.68
2017-12-20T07:57:02.820Z,1021.70
2017-12-20T07:58:02.815Z,1021.72
2017-12-20T07:59:02.809Z,1021.67
2017-12-20T08:00:02.804Z,1021.69
2017-12-20T08:01:02.799Z,1021.69
2017-12-20T08:02:02.793Z,1021.61
2017-12-20T08:03:02.788Z,1021.60
2017-12-20T08:04:02.782Z,1021.64
2017-12-20T08:05:02.782Z,1021.59
2017-12-20T08:06:02.773Z,1021.61
2017-12-20T08:07:02.767Z,1021.59
2017-12-20T08:08:02.763Z,1021.60
2017-12-20T08:09:02.757Z,1021.57
2017-12-20T08:10:02.754Z,1021.57
2017-12-20T08:11:02.747Z,1021.54
2017-12-20T08:12:02.743Z,1021.56
2017-12-20T08:13:02.736Z,1021.54
2017-12-20T08:14:02.730Z,1021.54
2017-12-20T08:15:02.729Z,1021.61
2017-12-20T08:16:02.721Z,1021.65
2017-12-20T08:17:02.717Z,1021.61
2017-12-20T08:18:02.709Z,1021.67
2017-12-20T08:19:02.705Z,1021.70
2017-12-20T08:20:02.700Z,1021.72
2017-12-20T08:21:02.695Z,1021.77
2017-12-20T08:22:02.689Z,1021.76
2017-12-20T08:23:02.684Z,1021.76
2017-12-20T08:24:02.679Z,1021.76
2017-12-20T08:25:02.675Z,1021.79
2017-12-20T08:26:02.668Z,1021.77
2017-12-20T08:27:02.663Z,1021.85
2017-12-20T08:28:02.660Z,1021.88
2017-12-20T08:29:02.654Z,1021.87
2017-12-20T08:30:02.649Z,1021.91
2017-12-20T08:31:02.644Z,1021.92
2017-12-20T08:32:02.640Z,1021.93
2017-12-20T08:33:02.634Z,1021.97
2017-12-20T08:34:02.628Z,1022.00
2017-12-20T08:35:02.622Z,1021.99
2017-12-20T08:36:02.618Z,1022.03
2017-12-20T08:37:02.614Z,1022.02
2017-12-20T08:38:02.607Z,1022.07
2017-12-20T08:39:02.602Z,1022.08
2017-12-20T08:40:02.597Z,1022.07
2017-12-20T08:41:02.592Z,1022.09
2017-12-20T08:42:02.587Z,1022.10
2017-12-20T08:43:02.584Z,1022.12
2017-12-20T08:44:02.577Z,1022.10
2017-12-20T08:45:02.572Z,1022.12
2017-12-20T08:46:02.566Z,1022.09
2017-12-20T08:47:02.561Z,1022.14
2017-12-20T08:48:02.557Z,1022.12
2017-12-20T08:49:02.552Z,1022.14
2017-12-20T08:50:02.545Z,1022.14
2017-12-20T08:51:02.541Z,1022.10
2017-12-20T08:52:02.536Z,1022.15
2017-12-20T08:53:02.531Z,1022.15
2017-12-20T08:54:02.527Z,1022.12
2017-12-20T08:55:02.521Z,1022.12
2017-12-20T08:56:02.529Z,1022.09
2017-12-20T08:57:02.511Z,1022.09
2017-12-20T08:58:02.506Z,1022.09
2017-12-20T08:59:02.501Z,1022.10
2017-12-20T09:00:02.496Z,1022.16
2017-12-20T09:01:02.492Z,1022.19
2017-12-20T09:02:02.487Z,1022.20
2017-12-20T09:03:02.482Z,1022.25
2017-12-20T09:04:02.477Z,1022.27
2017-12-20T09:05:02.472Z,1022.27
2017-12-20T09:06:02.466Z,1022.30
2017-12-20T09:07:02.462Z,1022.32
2017-12-20T09:08:02.459Z,1022.33
2017-12-20T09:09:02.452Z,1022.33
2017-12-20T09:10:02.447Z,1022.34
2017-12-20T09:11:02.447Z,1022.40
2017-12-20T09:12:02.445Z,1022.37
2017-12-20T09:13:02.434Z,1022.39
2017-12-20T09:14:02.426Z,1022.40
2017-12-20T09:15:02.422Z,1022.37
2017-12-20T09:16:02.418Z,1022.38
2017-12-20T09:17:02.413Z,1022.39
2017-12-20T09:18:02.407Z,1022.40
2017-12-20T09:19:02.411Z,1022.38
2017-12-20T09:20:02.399Z,1022.34
2017-12-20T09:21:02.394Z,1022.37
2017-12-20T09:22:02.389Z,1022.40
2017-12-20T09:23:02.383Z,1022.40
2017-12-20T09:24:02.379Z,1022.45
2017-12-20T09:25:02.374Z,1022.45
2017-12-20T09:26:02.369Z,1022.44
2017-12-20T09:27:02.365Z,1022.46
2017-12-20T09:28:02.360Z,1022.43
2017-12-20T09:29:02.357Z,1022.40
2017-12-20T09:30:02.350Z,1022.39
2017-12-20T09:31:02.346Z,1022.44
2017-12-20T09:32:02.341Z,1022.38
2017-12-20T09:33:02.337Z,1022.45
2017-12-20T09:34:02.331Z,1022.43
2017-12-20T09:35:02.326Z,1022.46
2017-12-20T09:36:02.321Z,1022.52
2017-12-20T09:37:02.318Z,1022.43
2017-12-20T09:38:02.312Z,1022.43
2017-12-20T09:39:02.308Z,1022.43
2017-12-20T09:40:02.303Z,1022.45
2017-12-20T09:41:02.298Z,1022.44
2017-12-20T09:42:02.293Z,1022.46
2017-12-20T09:43:02.288Z,1022.42
2017-12-20T09:44:02.285Z,1022.45
2017-12-20T09:45:02.280Z,1022.43
2017-12-20T09:46:02.274Z,1022.49
2017-12-20T09:47:02.270Z,1022.49
2017-12-20T09:48:02.264Z,1022.50
2017-12-20T09:49:02.260Z,1022.53
2017-12-20T09:50:02.254Z,1022.52
2017-12-20T09:51:02.249Z,1022.55
2017-12-20T09:52:02.246Z,1022.57
2017-12-20T09:53:02.241Z,1022.62
2017-12-20T09:54:02.236Z,1022.63
2017-12-20T09:55:02.231Z,1022.69
2017-12-20T09:56:02.227Z,1022.65
2017-12-20T09:57:02.224Z,1022.71
2017-12-20T09:58:02.215Z,1022.73
2017-12-20T09:59:02.213Z,1022.70
2017-12-20T10:00:02.209Z,1022.68
2017-12-20T10:01:02.203Z,1022.73
2017-12-20T10:02:02.198Z,1022.73
2017-12-20T10:03:02.193Z,1022.69
2017-12-20T10:04:02.190Z,1022.69
2017-12-20T10:05:02.184Z,1022.72
2017-12-20T10:06:02.182Z,1022.67
2017-12-20T10:07:02.174Z,1022.70
2017-12-20T10:08:02.169Z,1022.74
2017-12-20T10:09:02.172Z,1022.72
2017-12-20T10:10:02.159Z,1022.73
2017-12-20T10:11:02.155Z,1022.73
2017-12-20T10:12:02.152Z,1022.74
2017-12-20T10:13:02.146Z,1022.77
2017-12-20T10:14:02.141Z,1022.78
2017-12-20T10:15:02.136Z,1022.81
2017-12-20T10:16:02.138Z,1022.81
2017-12-20T10:17:02.127Z,1022.79
2017-12-20T10:18:02.121Z,1022.83
2017-12-20T10:19:02.117Z,1022.84
2017-12-20T10:20:02.113Z,1022.82
2017-12-20T10:21:02.108Z,1022.87
2017-12-20T10:22:02.102Z,1022.83
2017-12-20T10:23:02.098Z,1022.83
2017-12-20T10:24:02.093Z,1022.85
2017-12-20T10:25:02.090Z,1022.83
2017-12-20T10:26:02.083Z,1022.82
2017-12-20T10:27:02.079Z,1022.78
2017-12-20T10:28:02.074Z,1022.79
2017-12-20T10:29:02.071Z,1022.80
2017-12-20T10:30:02.064Z,1022.78
2017-12-20T10:31:02.059Z,1022.79
2017-12-20T10:33:02.049Z,1022.83
2017-12-20T10:34:02.044Z,1022.80
2017-12-20T10:35:02.042Z,1022.80
2017-12-20T10:36:02.036Z,1022.78
2017-12-20T10:37:02.036Z,1022.79
2017-12-20T10:38:02.025Z,1022.72
2017-12-20T10:39:02.021Z,1022.69
2017-12-20T10:40:02.016Z,1022.75
2017-12-20T10:41:02.011Z,1022.68
2017-12-20T10:42:02.005Z,1022.73
2017-12-20T10:43:01.999Z,1022.69
2017-12-20T10:44:01.996Z,1022.67
2017-12-20T10:45:01.991Z,1022.68
2017-12-20T10:46:01.987Z,1022.66
2017-12-20T10:47:01.983Z,1022.70
2017-12-20T10:48:01.978Z,1022.66
2017-12-20T10:49:01.989Z,1022.63
2017-12-20T10:50:01.972Z,1022.67
2017-12-20T10:51:01.963Z,1022.67
2017-12-20T10:52:01.958Z,1022.65
2017-12-20T10:53:01.954Z,1022.60
2017-12-20T10:54:01.946Z,1022.61
2017-12-20T10:55:01.943Z,1022.61
2017-12-20T10:56:01.939Z,1022.59
2017-12-20T10:57:01.934Z,1022.54
2017-12-20T10:58:01.929Z,1022.54
2017-12-20T10:59:01.925Z,1022.47
2017-12-20T11:00:01.920Z,1022.49
2017-12-20T11:01:01.915Z,1022.47
2017-12-20T11:02:01.910Z,1022.46
2017-12-20T11:03:01.905Z,1022.45
2017-12-20T11:04:01.905Z,1022.43
2017-12-20T11:05:01.897Z,1022.46
2017-12-20T11:06:01.891Z,1022.45
2017-12-20T11:07:01.887Z,1022.43
2017-12-20T11:08:01.882Z,1022.48
2017-12-20T11:09:01.878Z,1022.50
2017-12-20T11:10:01.872Z,1022.48
2017-12-20T11:11:01.870Z,1022.53
2017-12-20T11:12:01.864Z,1022.48
2017-12-20T11:13:01.859Z,1022.53
2017-12-20T11:14:01.854Z,1022.52
2017-12-20T11:15:01.851Z,1022.51
2017-12-20T11:16:01.846Z,1022.55
2017-12-20T11:17:01.844Z,1022.47
2017-12-20T11:18:01.835Z,1022.50
2017-12-20T11:19:01.832Z,1022.52
2017-12-20T11:20:01.827Z,1022.50
2017-12-20T11:21:01.823Z,1022.52
2017-12-20T11:22:01.817Z,1022.47
2017-12-20T11:23:01.814Z,1022.52
2017-12-20T11:24:01.808Z,1022.50
2017-12-20T11:25:01.803Z,1022.46
2017-12-20T11:26:01.800Z,1022.53
2017-12-20T11:27:01.796Z,1022.46
2017-12-20T11:28:01.792Z,1022.44
2017-12-20T11:29:01.786Z,1022.45
2017-12-20T11:30:01.781Z,1022.42
2017-12-20T11:31:01.775Z,1022.39
2017-12-20T11:32:01.771Z,1022.41
2017-12-20T11:33:01.769Z,1022.35
2017-12-20T11:34:01.765Z,1022.35
2017-12-20T11:35:01.759Z,1022.37
2017-12-20T11:36:01.754Z,1022.38
2017-12-20T11:37:01.750Z,1022.36
2017-12-20T11:38:01.744Z,1022.34
2017-12-20T11:39:01.741Z,1022.31
2017-12-20T11:40:01.735Z,1022.29
2017-12-20T11:41:01.732Z,1022.31
2017-12-20T11:42:01.727Z,1022.34
2017-12-20T11:43:01.724Z,1022.32
2017-12-20T11:44:01.720Z,1022.35
2017-12-20T11:45:01.714Z,1022.34
2017-12-20T11:46:01.710Z,1022.37
2017-12-20T11:47:01.706Z,1022.36
2017-12-20T11:48:01.702Z,1022.37
2017-12-20T11:49:01.697Z,1022.31
2017-12-20T11:50:01.694Z,1022.32
2017-12-20T11:51:01.688Z,1022.34
2017-12-20T11:52:01.686Z,1022.34
2017-12-20T11:53:01.680Z,1022.30
2017-12-20T11:54:01.675Z,1022.29
2017-12-20T11:55:01.671Z,1022.26
2017-12-20T11:56:01.668Z,1022.29
2017-12-20T11:57:01.664Z,1022.28
2017-12-20T11:58:01.659Z,1022.23
2017-12-20T11:59:01.655Z,1022.28
2017-12-20T12:00:01.651Z,1022.22
2017-12-20T12:01:01.646Z,1022.28
2017-12-20T12:02:01.640Z,1022.20
2017-12-20T12:03:01.637Z,1022.21
2017-12-20T12:04:01.633Z,1022.20
2017-12-20T12:05:01.630Z,1022.20
2017-12-20T12:06:01.624Z,1022.21